Time;durP1;ratioP1;P1;durP2;ratioP2;P2;SDS_P1;SDS_P2;PMS_P1;PMS_P2;Temp;Humidity;BMP_temperature;BMP_pressure;BME280_temperature;BME280_humidity;BME280_pressure;Samples;Min_cycle;Max_cycle;Signal;HPM_P1;HPM_P2
2023/10/01 00:00:36;;;;;;;9.05;2.88;;;18.70;99.90;;;;;;6098203;23;20009;-69
2023/10/01 00:03:05;;;;;;;9.13;3.03;;;17.70;99.90;;;;;;6124419;23;20010;-70
2023/10/01 00:05:30;;;;;;;10.68;3.53;;;18.20;99.90;;;;;;6097550;23;20080;-70
2023/10/01 00:07:56;;;;;;;9.13;3.17;;;18.60;99.90;;;;;;6074191;23;20041;-70
2023/10/01 00:10:22;;;;;;;10.15;3.47;;;18.50;99.90;;;;;;6097716;23;20065;-70
2023/10/01 00:12:50;;;;;;;8.93;3.30;;;18.10;99.90;;;;;;6098042;23;20106;-69
2023/10/01 00:15:18;;;;;;;10.18;3.28;;;17.60;99.90;;;;;;6097543;23;20069;-70
2023/10/01 00:17:46;;;;;;;10.65;3.30;;;18.00;99.90;;;;;;6123490;23;20463;-70
2023/10/01 00:20:20;;;;;;;8.80;2.90;;;17.70;99.90;;;;;;6123956;23;20037;-70
2023/10/01 00:22:46;;;;;;;;;;;18.80;99.90;;;;;;6098485;23;20009;-70
2023/10/01 00:25:12;;;;;;;11.35;3.58;;;17.90;99.90;;;;;;6097659;23;20402;-69
2023/10/01 00:27:38;;;;;;;10.02;4.25;;;18.50;99.90;;;;;;6073839;23;20024;-70
2023/10/01 00:30:09;;;;;;;8.23;2.97;;;17.70;99.90;;;;;;6097355;23;20049;-69
2023/10/01 00:32:39;;;;;;;8.18;3.15;;;17.90;99.90;;;;;;6117486;23;20475;-69
2023/10/01 00:35:06;;;;;;;11.18;3.78;;;17.70;99.90;;;;;;6098212;23;20018;-70
2023/10/01 00:37:33;;;;;;;12.48;3.75;;;17.50;99.90;;;;;;6098228;23;20017;-69
2023/10/01 00:40:00;;;;;;;11.15;3.42;;;18.80;99.90;;;;;;6123550;23;20033;-70
2023/10/01 00:42:29;;;;;;;11.80;4.13;;;18.40;99.90;;;;;;6122033;23;20018;-70
2023/10/01 00:44:58;;;;;;;8.77;3.78;;;17.60;99.90;;;;;;6122310;23;20092;-69
2023/10/01 00:47:26;;;;;;;9.95;3.97;;;18.50;99.90;;;;;;6121918;23;20041;-69
2023/10/01 00:49:52;;;;;;;9.93;3.53;;;18.50;99.90;;;;;;6121636;23;20010;-70
2023/10/01 00:52:19;;;;;;;9.15;3.75;;;18.30;99.90;;;;;;6121751;23;20018;-70
2023/10/01 00:54:45;;;;;;;9.13;3.55;;;18.70;99.90;;;;;;6122124;23;20044;-69
2023/10/01 00:57:12;;;;;;;13.07;3.90;;;18.60;99.90;;;;;;6121949;23;20348;-69
2023/10/01 00:59:38;;;;;;;13.63;4.47;;;17.80;99.90;;;;;;6121778;23;20017;-69
2023/10/01 01:02:07;;;;;;;14.23;4.63;;;17.70;99.90;;;;;;6123386;23;20022;-69
2023/10/01 01:04:42;;;;;;;12.35;4.28;;;17.60;99.90;;;;;;6121805;23;20014;-69
2023/10/01 01:07:16;;;;;;;9.32;4.28;;;18.80;99.90;;;;;;6121979;23;20017;-69
2023/10/01 01:09:45;;;;;;;7.40;4.00;;;17.50;99.90;;;;;;6123259;23;20021;-70
2023/10/01 01:12:12;;;;;;;9.55;4.65;;;19.00;99.90;;;;;;6121943;23;20014;-69
2023/10/01 01:14:39;;;;;;;8.63;4.20;;;17.60;99.90;;;;;;6121767;23;20080;-70
2023/10/01 01:17:05;;;;;;;10.60;4.50;;;18.20;99.90;;;;;;6123100;23;20010;-69
2023/10/01 01:19:34;;;;;;;10.25;4.60;;;18.00;99.90;;;;;;6121098;23;20435;-69
2023/10/01 01:22:02;;;;;;;10.38;4.07;;;18.50;1.00;;;;;;6121880;23;20399;-70
2023/10/01 01:24:31;;;;;;;11.05;3.70;;;18.30;99.90;;;;;;6121960;23;20018;-69
2023/10/01 01:27:05;;;;;;;11.45;3.78;;;18.30;1.00;;;;;;6122062;23;20018;-69
2023/10/01 01:29:34;;;;;;;9.25;3.80;;;17.50;99.90;;;;;;6121269;23;20084;-69
2023/10/01 01:32:15;;;;;;;8.38;3.80;;;18.60;1.00;;;;;;6120445;23;20052;-70
2023/10/01 01:34:45;;;;;;;9.38;4.18;;;18.10;1.00;;;;;;6123656;23;20016;-69
2023/10/01 01:37:36;;;;;;;10.38;4.30;;;17.80;99.90;;;;;;6096334;23;20018;-69
2023/10/01 01:40:09;;;;;;;10.77;4.25;;;18.70;99.90;;;;;;6097109;23;20017;-69
2023/10/01 01:42:35;;;;;;;12.00;4.82;;;;;;;;;;6097663;23;20085;-70
2023/10/01 01:45:18;;;;;;;11.65;4.50;;;18.50;99.90;;;;;;6121875;23;20025;-70
2023/10/01 01:47:44;;;;;;;9.57;4.20;;;17.50;99.90;;;;;;6122585;23;20068;-70
2023/10/01 01:50:21;;;;;;;10.57;4.65;;;18.80;99.90;;;;;;6121370;23;20021;-70
2023/10/01 01:52:49;;;;;;;11.63;5.57;;;18.50;99.90;;;;;;6121652;23;20029;-70
2023/10/01 01:55:29;;;;;;;11.57;4.80;;;18.50;99.90;;;;;;6121786;23;20020;-70
2023/10/01 01:58:11;;;;;;;12.43;4.63;;;18.70;99.90;;;;;;6122669;23;20018;-69
2023/10/01 02:00:38;;;;;;;12.10;5.13;;;18.50;1.00;;;;;;6119110;23;20145;-70
2023/10/01 02:03:14;;;;;;;14.25;5.60;;;18.60;99.90;;;;;;6120913;23;20013;-70
2023/10/01 02:05:41;;;;;;;12.23;5.57;;;18.80;99.90;;;;;;6117868;23;20014;-69
2023/10/01 02:08:23;;;;;;;12.18;5.25;;;17.60;99.90;;;;;;6120040;23;20089;-69
2023/10/01 02:10:54;;;;;;;11.57;5.05;;;18.30;1.00;;;;;;6096894;23;20010;-69
2023/10/01 02:13:21;;;;;;;11.52;5.22;;;18.50;99.90;;;;;;6121169;23;20131;-69
2023/10/01 02:15:47;;;;;;;11.07;5.78;;;18.70;99.90;;;;;;6121292;23;20018;-70
2023/10/01 02:18:16;;;;;;;12.57;5.75;;;18.80;1.00;;;;;;6122534;23;20018;-69
2023/10/01 02:20:51;;;;;;;11.85;6.78;;;17.70;1.00;;;;;;6125307;23;20010;-70
2023/10/01 02:23:25;;;;;;;13.48;6.35;;;18.20;99.90;;;;;;6123640;23;20069;-69
2023/10/01 02:25:57;;;;;;;11.60;5.95;;;17.30;99.90;;;;;;6125513;23;20355;-69
2023/10/01 02:28:25;;;;;;;10.18;6.20;;;18.60;99.90;;;;;;6123304;23;20021;-69
2023/10/01 02:30:59;;;;;;;10.57;5.75;;;18.60;99.90;;;;;;6123315;23;20036;-70
2023/10/01 02:33:41;;;;;;;15.40;6.25;;;18.30;99.90;;;;;;6124759;23;20032;-69
2023/10/01 02:36:12;;;;;;;12.45;6.55;;;18.40;99.90;;;;;;6099340;23;20017;-69
2023/10/01 02:38:45;;;;;;;10.57;6.82;;;17.70;99.90;;;;;;6098240;23;20026;-69
2023/10/01 02:41:14;;;;;;;11.60;6.97;;;17.90;99.90;;;;;;6098576;23;20064;-69
2023/10/01 02:43:41;;;;;;;11.80;7.07;;;18.20;99.90;;;;;;6124842;23;20010;-69
2023/10/01 02:46:12;;;;;;;10.98;6.68;;;17.60;99.90;;;;;;6125242;23;20022;-69
2023/10/01 02:48:42;;;;;;;11.90;6.90;;;17.30;99.90;;;;;;6124192;23;20022;-69
2023/10/01 02:51:17;;;;;;;13.18;6.78;;;18.60;99.90;;;;;;6098863;23;20045;-70
2023/10/01 02:54:01;;;;;;;12.77;6.47;;;17.40;99.90;;;;;;6124055;23;20467;-69
2023/10/01 02:56:32;;;;;;;14.38;6.80;;;18.20;99.90;;;;;;6074862;23;20013;-69
2023/10/01 02:59:07;;;;;;;12.27;7.05;;;18.60;99.90;;;;;;6124452;23;20050;-69
2023/10/01 03:01:34;;;;;;;13.88;7.28;;;18.20;99.90;;;;;;6074649;23;20511;-69
2023/10/01 03:04:05;;;;;;;13.88;8.63;;;18.30;99.90;;;;;;6125077;23;20052;-69
2023/10/01 03:06:33;;;;;;;14.05;7.35;;;18.60;99.90;;;;;;6125670;23;20021;-69
2023/10/01 03:09:03;;;;;;;15.90;7.78;;;17.60;99.90;;;;;;6075131;23;20018;-69
2023/10/01 03:11:40;;;;;;;12.70;7.70;;;17.60;99.90;;;;;;6124520;23;20546;-69
2023/10/01 03:14:11;;;;;;;12.20;7.18;;;18.20;99.90;;;;;;6124588;23;20013;-69
2023/10/01 03:19:17;;;;;;;14.05;7.63;;;18.30;99.90;;;;;;6123805;23;20464;-70
2023/10/01 03:24:29;;;;;;;;;;;18.70;99.90;;;;;;6124962;23;20021;-69
2023/10/01 03:27:03;;;;;;;14.82;7.45;;;18.50;99.90;;;;;;6098372;23;19913;-69
2023/10/01 03:29:35;;;;;;;12.80;7.72;;;17.50;99.90;;;;;;6098183;23;20014;-69
2023/10/01 03:32:26;;;;;;;15.20;8.15;;;18.40;99.90;;;;;;6111074;23;20446;-70
2023/10/01 03:34:47;;;;;;;9.88;6.78;;;18.60;99.90;;;;;;6122567;23;20648;-70
2023/10/01 03:37:19;;;;;;;12.80;7.50;;;17.30;99.90;;;;;;6124510;23;20054;-69
2023/10/01 03:39:51;;;;;;;15.48;8.48;;;18.40;99.90;;;;;;6122043;23;20013;-69
2023/10/01 03:42:21;;;;;;;13.20;7.85;;;17.60;99.90;;;;;;6122454;23;20487;-70
2023/10/01 03:47:34;;;;;;;13.65;7.43;;;18.20;99.90;;;;;;6124336;23;20101;-70
2023/10/01 03:50:00;;;;;;;11.63;7.60;;;17.90;1.00;;;;;;6097669;23;20014;-70
2023/10/01 03:52:39;;;;;;;12.05;7.45;;;17.60;1.00;;;;;;6122558;23;20368;-69
2023/10/01 03:55:30;;;;;;;13.15;8.05;;;17.40;99.90;;;;;;6122806;23;20021;-69
2023/10/01 03:58:08;;;;;;;14.40;8.65;;;18.20;99.90;;;;;;6122093;23;20014;-69
2023/10/01 04:00:53;;;;;;;15.10;8.43;;;18.30;1.00;;;;;;6122810;23;20325;-70
2023/10/01 04:03:21;;;;;;;14.40;7.85;;;17.60;1.00;;;;;;6098542;23;20010;-69
2023/10/01 04:05:47;;;;;;;13.30;7.55;;;17.30;1.00;;;;;;6122044;23;20021;-69
2023/10/01 04:08:14;;;;;;;15.25;8.00;;;18.40;1.00;;;;;;6123958;23;20226;-70
2023/10/01 04:10:41;;;;;;;14.15;8.50;;;17.40;1.00;;;;;;6123964;23;20014;-69
2023/10/01 04:13:13;;;;;;;13.95;7.40;;;18.10;1.00;;;;;;6098071;23;20032;-70
2023/10/01 04:15:46;;;;;;;14.57;7.53;;;18.10;1.00;;;;;;6122148;23;20017;-69
2023/10/01 04:20:48;;;;;;;15.82;8.05;;;18.30;1.00;;;;;;6124021;23;20094;-70
2023/10/01 04:23:23;;;;;;;13.27;7.13;;;17.90;1.00;;;;;;6098038;23;20088;-69
2023/10/01 04:25:51;;;;;;;10.63;6.95;;;18.40;1.00;;;;;;6121714;23;20021;-70
2023/10/01 04:28:20;;;;;;;15.65;6.90;;;18.50;1.00;;;;;;6121672;23;20367;-70
2023/10/01 04:30:51;;;;;;;14.48;7.15;;;17.90;1.00;;;;;;6121759;23;20017;-70
2023/10/01 04:33:23;;;;;;;12.85;6.38;;;17.70;1.00;;;;;;6073370;23;20641;-70
2023/10/01 04:35:58;;;;;;;13.63;6.57;;;17.50;1.00;;;;;;6097173;23;20049;-70
2023/10/01 04:38:32;;;;;;;14.65;7.82;;;18.60;1.00;;;;;;6096574;23;20069;-69
2023/10/01 04:40:59;;;;;;;15.13;6.93;;;18.40;1.00;;;;;;6074937;23;20049;-70
2023/10/01 04:43:34;;;;;;;15.60;7.38;;;17.60;1.00;;;;;;6073660;23;20017;-69
2023/10/01 04:46:01;;;;;;;13.98;6.93;;;18.50;1.00;;;;;;6123842;23;20014;-69
2023/10/01 04:48:30;;;;;;;12.57;7.57;;;18.20;1.00;;;;;;6097516;23;20049;-69
2023/10/01 04:50:55;;;;;;;15.32;7.75;;;17.50;1.00;;;;;;6097542;23;20045;-70
2023/10/01 04:53:25;;;;;;;14.70;7.13;;;18.20;1.00;;;;;;6123920;23;20451;-70
2023/10/01 04:56:06;;;;;;;15.60;6.93;;;17.50;1.00;;;;;;6098170;23;20102;-70
2023/10/01 04:58:42;;;;;;;13.88;6.93;;;17.40;1.00;;;;;;6122803;23;20018;-70
2023/10/01 05:01:12;;;;;;;12.82;6.00;;;17.70;1.00;;;;;;6097925;23;20021;-69
2023/10/01 05:03:39;;;;;;;15.02;7.30;;;18.60;1.00;;;;;;6123849;23;20103;-70
2023/10/01 05:06:18;;;;;;;13.27;6.47;;;17.50;1.00;;;;;;6123799;23;20009;-69
2023/10/01 05:08:44;;;;;;;13.73;6.85;;;18.10;1.00;;;;;;6095891;23;20092;-69
2023/10/01 05:11:11;;;;;;;13.70;6.10;;;17.40;1.00;;;;;;6123278;23;20048;-70
2023/10/01 05:13:42;;;;;;;10.63;5.72;;;17.50;1.00;;;;;;6097676;23;20025;-70
2023/10/01 05:16:12;;;;;;;12.65;5.57;;;18.40;1.00;;;;;;6097451;23;20017;-70
2023/10/01 05:18:45;;;;;;;16.33;6.35;;;18.50;1.00;;;;;;6072992;23;20126;-69
2023/10/01 05:21:12;;;;;;;13.85;7.40;;;17.50;1.00;;;;;;6073341;23;20309;-70
2023/10/01 05:23:42;;;;;;;12.10;6.07;;;17.60;1.00;;;;;;6123570;23;20092;-70
2023/10/01 05:26:10;;;;;;;12.70;5.78;;;18.60;1.00;;;;;;6097249;23;20013;-70
2023/10/01 05:28:36;;;;;;;14.38;6.57;;;17.40;6.60;;;;;;6122967;23;20018;-69
2023/10/01 05:31:24;;;;;;;13.32;5.72;;;18.20;14.70;;;;;;6122871;23;20048;-70
2023/10/01 05:33:52;;;;;;;14.15;6.65;;;17.40;13.60;;;;;;6123291;23;20463;-70
2023/10/01 05:36:18;;;;;;;11.25;5.65;;;18.30;32.60;;;;;;6097322;23;20022;-70
2023/10/01 05:38:45;;;;;;;13.50;6.38;;;18.40;47.30;;;;;;6096473;23;20022;-69
2023/10/01 05:41:15;;;;;;;14.50;6.10;;;18.40;51.40;;;;;;6097285;23;20014;-70
2023/10/01 05:43:50;;;;;;;14.95;6.22;;;17.60;65.60;;;;;;6123713;23;20013;-70
2023/10/01 05:46:17;;;;;;;14.85;7.00;;;17.30;48.50;;;;;;6097461;23;20010;-70
2023/10/01 05:48:44;;;;;;;12.55;6.07;;;17.80;83.90;;;;;;6071849;23;20045;-70
2023/10/01 05:51:18;;;;;;;16.95;6.32;;;17.80;90.30;;;;;;6123593;23;20088;-70
2023/10/01 05:53:44;;;;;;;;;;;18.30;83.30;;;;;;6096934;23;20021;-70
2023/10/01 05:56:11;;;;;;;17.00;6.47;;;;;;;;;;6096188;23;19913;-70
2023/10/01 05:58:42;;;;;;;14.85;6.18;;;17.30;91.60;;;;;;6091077;23;20018;-70
2023/10/01 06:01:16;;;;;;;14.05;5.60;;;18.30;99.90;;;;;;6095563;23;20017;-70
2023/10/01 06:03:48;;;;;;;15.35;6.10;;;18.40;99.90;;;;;;6123627;23;20032;-70
2023/10/01 06:06:14;;;;;;;14.05;5.47;;;18.50;99.90;;;;;;6073929;23;20017;-70
2023/10/01 06:08:49;;;;;;;14.55;6.80;;;18.60;99.90;;;;;;6096719;23;20060;-70
2023/10/01 06:11:17;;;;;;;15.23;6.93;;;17.30;99.90;;;;;;6096990;23;20018;-69
2023/10/01 06:13:53;;;;;;;12.32;6.63;;;18.30;99.90;;;;;;6096877;23;20100;-70
2023/10/01 06:16:23;;;;;;;13.13;5.47;;;17.60;99.90;;;;;;6123510;23;20073;-70
2023/10/01 06:18:56;;;;;;;16.75;7.53;;;17.30;99.90;;;;;;6096494;23;20018;-70
2023/10/01 06:21:25;;;;;;;14.55;5.68;;;17.80;99.90;;;;;;6123096;23;20010;-70
2023/10/01 06:23:58;;;;;;;15.93;6.07;;;18.50;99.90;;;;;;6049081;23;20057;-70
2023/10/01 06:26:33;;;;;;;12.77;5.90;;;18.40;99.90;;;;;;6097079;23;20021;-70
2023/10/01 06:29:02;;;;;;;16.17;6.40;;;17.30;99.90;;;;;;6096233;23;20360;-70
2023/10/01 06:31:29;;;;;;;15.23;6.07;;;18.40;99.90;;;;;;6096375;23;20021;-70
2023/10/01 06:33:55;;;;;;;13.25;6.28;;;17.40;99.90;;;;;;6095389;23;20124;-70
2023/10/01 06:36:21;;;;;;;11.73;5.32;;;18.40;99.90;;;;;;6121684;23;20037;-70
2023/10/01 06:38:48;;;;;;;14.00;6.22;;;17.30;99.90;;;;;;6119353;23;20452;-70
2023/10/01 06:41:19;;;;;;;14.93;5.60;;;17.30;99.90;;;;;;6095199;23;20052;-70
2023/10/01 06:43:54;;;;;;;12.52;6.07;;;18.40;99.90;;;;;;6123286;23;20014;-70
2023/10/01 06:46:29;;;;;;;13.77;6.75;;;18.30;99.90;;;;;;6072691;23;20033;-70
2023/10/01 06:48:58;;;;;;;15.23;5.60;;;18.40;99.90;;;;;;6121937;23;20025;-70
2023/10/01 06:51:26;;;;;;;12.73;6.00;;;17.80;99.90;;;;;;6096956;23;20021;-69
2023/10/01 06:53:59;;;;;;;17.25;6.70;;;18.20;99.90;;;;;;6096667;23;20105;-69
2023/10/01 06:56:26;;;;;;;16.52;6.45;;;18.10;99.90;;;;;;6123187;23;20364;-69
2023/10/01 07:01:35;;;;;;;16.88;7.38;;;18.50;99.90;;;;;;6096321;23;20098;-70
2023/10/01 07:04:07;;;;;;;15.10;6.65;;;18.40;99.90;;;;;;6097004;23;20014;-69
2023/10/01 07:06:36;;;;;;;14.35;5.97;;;18.00;99.90;;;;;;6098586;23;20036;-69
2023/10/01 07:09:02;;;;;;;18.80;7.45;;;18.20;99.90;;;;;;6097245;23;20112;-69
2023/10/01 07:11:29;;;;;;;16.45;6.25;;;18.40;99.90;;;;;;6073398;23;20073;-70
2023/10/01 07:13:56;;;;;;;17.23;7.20;;;17.70;99.90;;;;;;6098241;23;20122;-69
2023/10/01 07:16:40;;;;;;;16.45;6.47;;;17.40;99.90;;;;;;6124335;23;20397;-69
2023/10/01 07:19:11;;;;;;;14.45;6.88;;;18.10;99.90;;;;;;6097401;23;20464;-69
2023/10/01 07:21:37;;;;;;;14.82;6.25;;;;;;;;;;6098650;23;20013;-69
2023/10/01 07:24:04;;;;;;;17.55;7.10;;;17.80;99.90;;;;;;6123687;23;20018;-69
2023/10/01 07:26:33;;;;;;;24.80;7.82;;;17.50;99.90;;;;;;6123872;23;20451;-70
2023/10/01 07:28:59;;;;;;;17.80;7.07;;;18.40;99.90;;;;;;6097704;23;20143;-71
2023/10/01 07:31:33;;;;;;;17.73;6.93;;;18.20;99.90;;;;;;6104168;23;20018;-70
2023/10/01 07:34:01;;;;;;;18.15;7.45;;;17.50;99.90;;;;;;6122749;23;20010;-71
2023/10/01 07:36:27;;;;;;;16.63;7.22;;;18.70;99.90;;;;;;6123663;23;20006;-70
2023/10/01 07:38:56;;;;;;;15.20;6.57;;;18.40;99.90;;;;;;6120037;23;20423;-70
2023/10/01 07:41:28;;;;;;;17.58;6.90;;;18.60;99.90;;;;;;6120470;23;20018;-70
2023/10/01 07:43:55;;;;;;;17.65;7.07;;;18.50;99.90;;;;;;6096753;23;20013;-71
2023/10/01 07:46:21;;;;;;;15.93;7.32;;;18.30;99.90;;;;;;6097216;23;20135;-70
2023/10/01 07:48:51;;;;;;;18.90;7.97;;;18.20;99.90;;;;;;6096901;23;20028;-70
2023/10/01 07:51:23;;;;;;;12.98;6.53;;;17.80;99.90;;;;;;6097052;23;20017;-70
2023/10/01 07:53:53;;;;;;;14.77;6.20;;;17.60;99.90;;;;;;6122386;23;20471;-70
2023/10/01 07:56:23;;;;;;;16.08;5.82;;;18.50;99.90;;;;;;6120966;23;20017;-70
2023/10/01 08:01:37;;;;;;;14.95;6.63;;;17.60;99.90;;;;;;6123984;23;20341;-70
2023/10/01 08:04:08;;;;;;;13.15;6.05;;;18.90;99.90;;;;;;6121870;23;20020;-70
2023/10/01 08:06:43;;;;;;;16.33;7.07;;;18.60;99.90;;;;;;6122565;23;20014;-70
2023/10/01 08:09:12;;;;;;;15.55;6.55;;;18.70;99.90;;;;;;6121515;23;20347;-70
2023/10/01 08:14:26;;;;;;;14.88;5.88;;;18.50;99.90;;;;;;6123633;23;20026;-70
2023/10/01 08:17:00;;;;;;;12.50;5.80;;;17.80;99.90;;;;;;6125223;23;20081;-70
2023/10/01 08:19:41;;;;;;;15.53;6.33;;;18.50;99.90;;;;;;6128277;23;20038;-69
2023/10/01 08:22:13;;;;;;;13.02;6.20;;;18.40;99.90;;;;;;6101409;23;20242;-69
2023/10/01 08:24:45;;;;;;;17.10;6.30;;;18.50;99.90;;;;;;6098522;23;20010;-69
2023/10/01 08:27:12;;;;;;;13.50;5.75;;;18.70;99.90;;;;;;6121881;23;20097;-70
2023/10/01 08:32:22;;;;;;;;;;;17.80;99.90;;;;;;6122571;23;20018;-70
2023/10/01 08:35:23;;;;;;;13.27;5.85;;;18.40;99.90;;;;;;6122668;23;20013;-70
2023/10/01 08:37:49;;;;;;;14.50;5.13;;;18.50;99.90;;;;;;6119203;23;20018;-69
2023/10/01 08:40:17;;;;;;;12.68;5.18;;;18.70;99.90;;;;;;6121471;23;20014;-70
2023/10/01 08:42:47;;;;;;;10.25;4.97;;;18.80;99.90;;;;;;6124230;23;20259;-70
2023/10/01 08:45:17;;;;;;;12.23;5.20;;;18.50;99.90;;;;;;6121888;23;20045;-71
2023/10/01 08:47:47;;;;;;;15.43;6.07;;;18.60;99.90;;;;;;6122146;23;20014;-70
2023/10/01 08:52:56;;;;;;;13.50;5.38;;;18.50;99.90;;;;;;6122413;23;20045;-70
2023/10/01 08:58:48;;;;;;;11.60;4.80;;;17.80;99.90;;;;;;6120919;23;20081;-70
2023/10/01 09:01:12;;;;;;;11.80;5.22;;;17.80;99.90;;;;;;6122812;23;20014;-70
2023/10/01 09:03:39;;;;;;;16.08;4.93;;;18.20;99.90;;;;;;6122209;23;20033;-70
2023/10/01 09:06:08;;;;;;;10.90;4.70;;;17.90;99.90;;;;;;6121595;23;20467;-70
2023/10/01 09:08:47;;;;;;;9.90;5.13;;;18.10;99.90;;;;;;6121329;23;20014;-70
2023/10/01 09:11:15;;;;;;;14.93;6.40;;;18.80;99.90;;;;;;6121556;23;20463;-70
2023/10/01 09:16:42;;;;;;;12.45;5.30;;;17.90;99.90;;;;;;6122134;23;20026;-70
2023/10/01 09:21:55;;;;;;;15.35;5.88;;;18.00;99.90;;;;;;6121985;23;20014;-70
2023/10/01 09:24:55;;;;;;;13.45;5.63;;;18.60;99.90;;;;;;6121460;23;20014;-70
2023/10/01 09:27:25;;;;;;;13.68;5.10;;;18.10;99.90;;;;;;6121204;23;20046;-70
2023/10/01 09:30:26;;;;;;;11.27;5.47;;;18.80;99.90;;;;;;6121265;23;20021;-70
2023/10/01 09:32:51;;;;;;;12.40;5.57;;;18.10;99.90;;;;;;6121231;23;20014;-70
2023/10/01 09:35:40;;;;;;;11.90;5.22;;;18.20;99.90;;;;;;6123015;23;20311;-70
2023/10/01 09:38:19;;;;;;;13.77;5.78;;;18.70;99.90;;;;;;6096143;23;20017;-70
2023/10/01 09:40:47;;;;;;;10.10;4.97;;;18.70;99.90;;;;;;6121663;23;20065;-70
2023/10/01 09:43:30;;;;;;;16.65;6.32;;;17.80;99.90;;;;;;6122744;23;20073;-70
2023/10/01 09:45:58;;;;;;;15.23;5.88;;;18.00;99.90;;;;;;6121852;23;20014;-70
2023/10/01 09:48:48;;;;;;;12.15;5.45;;;18.20;99.90;;;;;;6120776;23;20021;-71
2023/10/01 09:51:14;;;;;;;11.32;5.45;;;18.50;99.90;;;;;;6121195;23;20045;-70
2023/10/01 09:54:02;;;;;;;12.52;5.70;;;18.80;99.90;;;;;;6121862;23;20024;-70
2023/10/01 09:56:30;;;;;;;13.60;5.85;;;18.50;99.90;;;;;;6121269;23;20105;-70
2023/10/01 09:59:03;;;;;;;12.35;5.82;;;18.20;99.90;;;;;;6096521;23;20033;-70
2023/10/01 10:01:33;;;;;;;12.27;5.90;;;19.10;99.90;;;;;;6123096;23;20028;-70
2023/10/01 10:04:01;;;;;;;12.10;5.57;;;19.30;99.90;;;;;;6120295;23;20479;-70
2023/10/01 10:06:27;;;;;;;16.05;6.57;;;18.70;99.90;;;;;;6121009;23;20010;-70
2023/10/01 10:09:03;;;;;;;12.38;5.18;;;18.50;99.90;;;;;;6120784;23;20077;-70
2023/10/01 10:11:30;;;;;;;13.85;5.82;;;;;;;;;;6121996;23;20020;-70
2023/10/01 10:14:00;;;;;;;15.75;6.30;;;18.70;99.90;;;;;;6122857;23;20032;-70
2023/10/01 10:16:32;;;;;;;12.45;5.80;;;18.80;99.90;;;;;;6123183;23;20057;-70
2023/10/01 10:19:13;;;;;;;13.27;5.70;;;18.00;99.90;;;;;;6121135;23;20417;-70
2023/10/01 10:24:46;;;;;;;13.00;5.68;;;18.70;99.90;;;;;;6121053;23;20478;-70
2023/10/01 10:27:33;;;;;;;12.48;5.32;;;18.90;99.90;;;;;;6120913;23;20009;-70
2023/10/01 10:30:05;;;;;;;13.30;6.10;;;18.10;99.90;;;;;;6121772;23;20026;-70
2023/10/01 10:32:44;;;;;;;12.98;6.30;;;18.90;99.90;;;;;;6097305;23;20046;-70
2023/10/01 10:35:19;;;;;;;13.63;5.90;;;18.70;99.90;;;;;;6096935;23;20507;-70
2023/10/01 10:37:47;;;;;;;11.95;5.70;;;18.90;99.90;;;;;;6097619;23;20097;-70
2023/10/01 10:43:04;;;;;;;14.95;6.45;;;18.70;99.90;;;;;;6125132;23;20014;-70
2023/10/01 10:45:46;;;;;;;11.13;6.15;;;18.60;99.90;;;;;;6122786;23;20108;-70
2023/10/01 10:48:24;;;;;;;12.95;6.53;;;18.60;99.90;;;;;;6122282;23;20463;-70
2023/10/01 10:50:58;;;;;;;13.07;6.47;;;18.00;99.90;;;;;;6124585;23;20041;-70
2023/10/01 10:53:37;;;;;;;14.07;6.43;;;17.90;99.90;;;;;;6124569;23;20018;-70
2023/10/01 10:56:07;;;;;;;15.75;6.97;;;18.70;99.90;;;;;;6122154;23;20018;-70
2023/10/01 10:59:01;;;;;;;13.57;6.60;;;18.80;99.90;;;;;;6122358;23;20014;-70
2023/10/01 11:01:43;;;;;;;13.43;6.80;;;18.60;99.90;;;;;;6122764;23;20376;-70
2023/10/01 11:04:09;;;;;;;14.18;6.15;;;19.10;99.90;;;;;;6125181;23;20017;-70
2023/10/01 11:07:01;;;;;;;14.40;6.85;;;19.00;99.90;;;;;;6097385;23;20013;-70
2023/10/01 11:09:30;;;;;;;14.00;6.20;;;19.00;99.90;;;;;;6122575;23;20027;-70
2023/10/01 11:12:05;;;;;;;13.05;6.00;;;18.90;99.90;;;;;;6098726;23;20321;-70
2023/10/01 11:14:36;;;;;;;16.08;7.35;;;19.10;99.90;;;;;;6124734;23;20076;-70
2023/10/01 11:17:03;;;;;;;14.20;6.45;;;18.70;99.90;;;;;;6123081;23;20045;-70
2023/10/01 11:19:35;;;;;;;13.23;6.63;;;18.80;99.90;;;;;;6122505;23;20127;-69
2023/10/01 11:22:04;;;;;;;15.65;6.95;;;18.80;99.90;;;;;;6124816;23;20006;-71
2023/10/01 11:24:39;;;;;;;13.43;6.15;;;18.80;99.90;;;;;;6122707;23;20014;-72
2023/10/01 11:27:25;;;;;;;17.20;6.93;;;19.10;99.90;;;;;;6096835;23;20024;-70
2023/10/01 11:30:13;;;;;;;16.33;7.80;;;18.90;99.90;;;;;;6097855;23;20014;-70
2023/10/01 11:32:57;;;;;;;15.02;7.60;;;18.90;99.90;;;;;;6121255;23;20014;-70
2023/10/01 11:35:34;;;;;;;;;;;18.80;99.90;;;;;;6122409;23;20013;-70
2023/10/01 11:38:07;;;;;;;14.20;6.35;;;19.10;99.90;;;;;;6123164;23;19991;-69
2023/10/01 11:43:28;;;;;;;13.32;6.78;;;18.60;99.90;;;;;;6121899;23;20109;-70
2023/10/01 11:46:18;;;;;;;17.40;7.40;;;18.80;99.90;;;;;;6100187;23;20009;-70
2023/10/01 11:48:59;;;;;;;14.18;7.15;;;18.90;99.90;;;;;;6123096;23;20014;-71
2023/10/01 11:51:50;;;;;;;15.55;6.72;;;18.30;99.90;;;;;;6122304;23;20092;-70
2023/10/01 11:54:21;;;;;;;15.70;7.70;;;18.80;99.90;;;;;;6122539;23;20016;-70
2023/10/01 11:56:47;;;;;;;16.67;8.50;;;19.00;99.90;;;;;;6122599;23;20014;-70
2023/10/01 11:59:19;;;;;;;18.85;7.10;;;18.60;99.90;;;;;;6121437;23;20022;-70
2023/10/01 12:01:54;;;;;;;15.15;7.65;;;19.60;99.90;;;;;;6098129;23;20417;-70
2023/10/01 12:04:24;;;;;;;16.35;7.85;;;19.00;99.90;;;;;;6121928;23;20010;-70
2023/10/01 12:06:53;;;;;;;18.55;7.97;;;18.90;99.90;;;;;;6122451;23;20467;-70
2023/10/01 12:09:20;;;;;;;16.98;7.75;;;19.00;99.90;;;;;;6097668;23;20017;-70
2023/10/01 12:12:04;;;;;;;17.38;7.72;;;19.10;99.90;;;;;;6122373;23;20093;-71
2023/10/01 12:14:52;;;;;;;15.75;8.27;;;19.00;99.90;;;;;;6123973;23;20017;-70
2023/10/01 12:17:25;;;;;;;15.32;7.85;;;19.00;99.90;;;;;;6121782;23;20022;-70
2023/10/01 12:19:59;;;;;;;14.10;6.97;;;18.90;99.90;;;;;;6123221;23;20093;-70
2023/10/01 12:22:27;;;;;;;17.00;7.88;;;19.20;99.90;;;;;;6097507;23;20577;-70
2023/10/01 12:25:02;;;;;;;14.68;7.53;;;19.20;99.90;;;;;;6123968;23;20021;-70
2023/10/01 12:28:15;;;;;;;15.00;6.95;;;18.90;99.90;;;;;;6097409;23;20352;-70
2023/10/01 12:30:27;;;;;;;14.15;7.22;;;18.70;99.90;;;;;;6117462;23;20464;-70
2023/10/01 12:32:55;;;;;;;16.20;7.22;;;19.00;99.90;;;;;;6123433;23;20013;-70
2023/10/01 12:35:27;;;;;;;16.20;6.93;;;19.00;99.90;;;;;;6097526;23;20014;-70
2023/10/01 12:38:22;;;;;;;15.98;8.40;;;19.30;99.90;;;;;;6123225;23;20010;-70
2023/10/01 12:40:52;;;;;;;14.63;7.13;;;19.20;99.90;;;;;;6097594;23;20021;-70
2023/10/01 12:43:37;;;;;;;15.25;7.97;;;19.20;99.90;;;;;;6073542;23;20022;-70
2023/10/01 12:46:13;;;;;;;19.73;8.73;;;18.70;99.90;;;;;;6097662;23;20869;-70
2023/10/01 12:49:14;;;;;;;16.60;7.25;;;19.10;99.90;;;;;;6096864;23;20013;-70
2023/10/01 12:51:41;;;;;;;13.73;7.15;;;19.30;99.90;;;;;;6097032;23;20014;-70
2023/10/01 12:54:06;;;;;;;15.20;7.55;;;19.10;99.90;;;;;;6097531;23;20015;-70
2023/10/01 12:56:44;;;;;;;16.35;7.60;;;19.50;99.90;;;;;;6123057;23;20355;-70
2023/10/01 12:59:18;;;;;;;16.42;8.05;;;19.20;99.90;;;;;;6094422;23;20076;-70
2023/10/01 13:01:50;;;;;;;14.93;7.85;;;19.10;99.90;;;;;;6096590;23;20018;-70
2023/10/01 13:04:25;;;;;;;15.13;8.20;;;18.90;99.90;;;;;;6122824;23;20014;-71
2023/10/01 13:06:53;;;;;;;16.08;7.65;;;19.10;99.90;;;;;;6122921;23;20009;-70
2023/10/01 13:09:53;;;;;;;14.73;7.60;;;19.20;99.90;;;;;;6093973;23;20014;-71
2023/10/01 13:12:24;;;;;;;16.08;7.45;;;19.60;99.90;;;;;;6122103;23;20020;-70
2023/10/01 13:17:43;;;;;;;13.25;6.63;;;19.10;99.90;;;;;;6099615;23;20460;-70
2023/10/01 13:21:10;;;;;;;15.73;7.15;;;18.20;99.90;;;;;;6121713;23;20014;-70
2023/10/01 13:23:07;;;;;;;18.35;7.68;;;19.20;99.90;;;;;;6101605;23;20024;-70
2023/10/01 13:25:37;;;;;;;16.30;7.07;;;19.20;99.90;;;;;;6122187;23;20073;-70
2023/10/01 13:28:06;;;;;;;14.63;7.25;;;19.20;99.90;;;;;;6095945;23;20097;-70
2023/10/01 13:33:22;;;;;;;17.70;8.20;;;19.30;99.90;;;;;;6095524;23;20018;-70
2023/10/01 13:35:56;;;;;;;15.82;8.15;;;19.00;99.90;;;;;;6122347;23;20010;-70
2023/10/01 13:38:37;;;;;;;21.33;8.13;;;19.30;99.90;;;;;;6121960;23;20459;-70
2023/10/01 14:11:07;;;;;;;21.10;7.85;;;19.40;99.90;;;;;;6122932;23;19913;-70
2023/10/01 14:13:35;;;;;;;16.67;8.25;;;19.60;99.90;;;;;;6097555;23;20025;-70
2023/10/01 14:16:12;;;;;;;14.57;6.78;;;19.40;99.90;;;;;;6097836;23;20392;-70
2023/10/01 14:18:53;;;;;;;18.73;8.07;;;19.80;99.90;;;;;;6072425;23;20465;-70
2023/10/01 14:21:28;;;;;;;15.50;7.88;;;19.30;99.90;;;;;;6095933;23;20018;-70
2023/10/01 14:24:21;;;;;;;23.45;8.57;;;19.70;99.90;;;;;;6124290;23;20025;-71